Time;durP1;ratioP1;P1;durP2;ratioP2;P2;SDS_P1;SDS_P2;PMS_P1;PMS_P2;Temp;Humidity;BMP_temperature;BMP_pressure;BME280_temperature;BME280_humidity;BME280_pressure;Samples;Min_cycle;Max_cycle;Signal;HPM_P1;HPM_P2
2022/11/23 00:01:48;;;;;;;12.40;3.90;;;9.50;99.90;;;;;;5075251;28;20464;-78
2022/11/23 00:04:13;;;;;;;9.60;3.38;;;9.50;99.90;;;;;;5075770;28;20032;-78
2022/11/23 00:06:39;;;;;;;9.05;3.63;;;9.50;99.90;;;;;;5093309;28;20369;-78
2022/11/23 00:09:06;;;;;;;8.30;3.55;;;9.50;99.90;;;;;;5093646;28;20111;-78
2022/11/23 00:11:34;;;;;;;14.40;4.20;;;9.50;99.90;;;;;;5075673;28;20481;-78
2022/11/23 00:13:59;;;;;;;7.88;4.20;;;9.50;99.90;;;;;;5075422;28;20115;-78
2022/11/23 00:16:27;;;;;;;9.77;4.00;;;9.50;99.90;;;;;;5093636;28;20118;-78
2022/11/23 00:18:57;;;;;;;9.82;3.75;;;9.50;99.90;;;;;;5093932;28;20452;-79
2022/11/23 00:21:25;;;;;;;14.15;4.40;;;9.50;99.90;;;;;;5093779;28;20052;-78
2022/11/23 00:23:50;;;;;;;9.75;4.00;;;9.50;99.90;;;;;;5075725;28;20032;-79
2022/11/23 00:26:17;;;;;;;9.88;4.38;;;9.50;99.90;;;;;;5093347;28;20028;-78
2022/11/23 00:28:43;;;;;;;13.93;5.22;;;9.60;99.90;;;;;;5075163;28;20035;-78
2022/11/23 00:31:10;;;;;;;11.82;5.20;;;9.50;99.90;;;;;;5075951;28;20035;-78
2022/11/23 00:33:36;;;;;;;13.10;5.15;;;9.50;99.90;;;;;;5093339;28;20039;-78
2022/11/23 00:36:09;;;;;;;13.75;5.53;;;9.50;99.90;;;;;;5075575;28;20032;-78
2022/11/23 00:38:35;;;;;;;10.75;4.82;;;9.50;99.90;;;;;;5075286;28;20536;-78
2022/11/23 00:41:04;;;;;;;14.77;4.90;;;9.50;99.90;;;;;;5093050;28;20103;-78
2022/11/23 00:43:30;;;;;;;14.90;5.60;;;9.50;99.90;;;;;;5093256;28;20020;-77
2022/11/23 00:46:15;;;;;;;13.55;4.72;;;9.50;99.90;;;;;;5093261;28;20032;-77
2022/11/23 00:48:45;;;;;;;14.70;5.72;;;9.60;99.90;;;;;;5075546;28;20471;-77
2022/11/23 00:51:14;;;;;;;17.80;5.57;;;9.50;99.90;;;;;;5093541;28;20113;-77
2022/11/23 00:53:40;;;;;;;14.98;5.35;;;9.50;99.90;;;;;;5074920;28;20028;-77
2022/11/23 00:56:07;;;;;;;13.10;5.07;;;9.50;99.90;;;;;;5093198;28;20165;-77
2022/11/23 00:58:33;;;;;;;10.50;5.35;;;9.50;99.90;;;;;;5093092;28;20043;-77
2022/11/23 01:01:08;;;;;;;17.52;6.85;;;9.50;99.90;;;;;;5093165;28;20052;-77
2022/11/23 01:03:34;;;;;;;18.20;5.80;;;9.50;99.90;;;;;;5093090;28;20153;-77
2022/11/23 01:06:09;;;;;;;14.80;6.55;;;9.50;99.90;;;;;;5075288;28;20032;-78
2022/11/23 01:08:35;;;;;;;15.98;6.18;;;9.50;99.90;;;;;;5093161;28;20028;-77
2022/11/23 01:11:03;;;;;;;20.95;6.53;;;9.50;99.90;;;;;;5094186;28;20024;-78
2022/11/23 01:13:29;;;;;;;14.00;6.25;;;9.50;99.90;;;;;;5078639;28;20105;-78
2022/11/23 01:15:55;;;;;;;14.65;6.30;;;9.60;99.90;;;;;;5097021;28;20035;-78
2022/11/23 01:18:22;;;;;;;17.80;6.15;;;9.60;99.90;;;;;;5096814;28;20052;-78
2022/11/23 01:20:47;;;;;;;14.75;6.82;;;9.60;99.90;;;;;;5096981;28;20479;-78
2022/11/23 01:23:13;;;;;;;13.07;5.50;;;9.60;99.90;;;;;;5096579;28;20028;-78
2022/11/23 01:25:38;;;;;;;18.08;5.97;;;9.60;99.90;;;;;;5097779;28;20084;-78
2022/11/23 01:28:04;;;;;;;15.50;5.50;;;9.60;99.90;;;;;;5083158;28;20032;-78
2022/11/23 01:30:30;;;;;;;14.43;5.30;;;9.60;99.90;;;;;;5098879;28;20469;-78
2022/11/23 01:32:56;;;;;;;14.45;5.43;;;9.70;99.90;;;;;;5096968;28;20062;-78
2022/11/23 01:35:21;;;;;;;13.05;4.68;;;9.60;99.90;;;;;;5078439;28;20032;-78
2022/11/23 01:37:47;;;;;;;14.80;5.03;;;9.60;99.90;;;;;;5078324;28;20032;-78
2022/11/23 01:40:12;;;;;;;16.83;5.30;;;9.60;99.90;;;;;;5078260;28;20032;-78
2022/11/23 01:42:58;;;;;;;17.98;4.63;;;9.60;99.90;;;;;;5078539;28;20468;-77
2022/11/23 01:45:40;;;;;;;12.52;4.40;;;9.60;99.90;;;;;;5078846;28;20024;-77
2022/11/23 01:48:16;;;;;;;12.68;4.18;;;9.70;99.90;;;;;;5096246;28;20036;-77
2022/11/23 01:50:45;;;;;;;13.30;4.20;;;9.70;99.90;;;;;;5096236;28;20039;-77
2022/11/23 01:53:10;;;;;;;13.02;4.05;;;9.70;99.90;;;;;;5077860;28;20506;-77
2022/11/23 01:55:37;;;;;;;21.67;5.05;;;9.70;99.90;;;;;;5096033;28;20032;-77
2022/11/23 01:58:05;;;;;;;17.80;4.13;;;9.70;99.90;;;;;;5096053;28;20529;-77
2022/11/23 02:00:31;;;;;;;12.27;3.80;;;9.70;99.90;;;;;;5096017;28;20053;-77
2022/11/23 02:02:59;;;;;;;14.02;4.18;;;9.70;99.90;;;;;;5095703;28;20024;-77
2022/11/23 02:05:30;;;;;;;11.02;3.42;;;9.70;99.90;;;;;;5078163;28;20024;-77
2022/11/23 02:07:59;;;;;;;18.25;3.75;;;9.70;99.90;;;;;;5095573;28;20502;-77
2022/11/23 02:10:25;;;;;;;13.15;3.60;;;9.70;99.90;;;;;;5095808;28;20028;-77
2022/11/23 02:12:52;;;;;;;14.55;3.63;;;9.70;99.90;;;;;;5096069;28;20050;-76
2022/11/23 02:15:18;;;;;;;9.65;3.10;;;9.70;99.90;;;;;;5095938;28;20036;-78
2022/11/23 02:17:44;;;;;;;11.13;3.05;;;9.70;99.90;;;;;;5060835;28;20032;-77
2022/11/23 02:20:13;;;;;;;12.45;2.88;;;9.70;99.90;;;;;;5096022;28;20055;-77
2022/11/23 02:22:50;;;;;;;11.25;3.28;;;9.70;99.90;;;;;;5076289;28;20543;-77
2022/11/23 02:25:42;;;;;;;18.85;3.38;;;9.70;99.90;;;;;;5095598;28;20460;-77
2022/11/23 02:28:09;;;;;;;12.32;2.78;;;9.70;99.90;;;;;;5095607;28;20058;-78
2022/11/23 02:30:35;;;;;;;13.57;3.50;;;9.80;99.90;;;;;;5095542;28;20028;-77
2022/11/23 02:33:04;;;;;;;10.90;2.83;;;9.70;99.90;;;;;;5095721;28;20035;-77
2022/11/23 02:35:30;;;;;;;11.60;3.42;;;9.70;99.90;;;;;;5077610;28;20032;-77
2022/11/23 02:37:55;;;;;;;15.80;2.70;;;9.70;99.90;;;;;;5095321;28;20024;-78
2022/11/23 02:40:33;;;;;;;11.63;3.05;;;9.70;99.90;;;;;;5077047;28;20110;-77
2022/11/23 02:42:59;;;;;;;15.30;3.00;;;9.70;99.90;;;;;;5077345;28;20035;-77
2022/11/23 02:45:37;;;;;;;13.98;2.78;;;9.70;99.90;;;;;;5095500;28;20073;-78
2022/11/23 02:48:03;;;;;;;10.65;2.40;;;9.70;99.90;;;;;;5095119;28;20128;-78
2022/11/23 02:50:29;;;;;;;11.30;2.63;;;9.70;99.90;;;;;;5076886;28;20424;-78
2022/11/23 02:52:55;;;;;;;13.35;3.50;;;9.70;99.90;;;;;;5094665;28;20030;-78
2022/11/23 02:55:21;;;;;;;5.90;2.35;;;9.70;99.90;;;;;;5094947;28;20024;-78
2022/11/23 02:57:46;;;;;;;9.02;2.15;;;9.70;99.90;;;;;;5095171;28;20032;-78
2022/11/23 03:00:13;;;;;;;12.13;2.88;;;9.70;99.90;;;;;;5077362;28;20107;-78
2022/11/23 03:02:39;;;;;;;13.13;2.63;;;9.60;99.90;;;;;;5096401;28;20076;-78
2022/11/23 03:05:05;;;;;;;12.13;2.70;;;9.70;99.90;;;;;;5096059;28;20059;-77
2022/11/23 03:07:31;;;;;;;8.23;2.60;;;9.60;99.90;;;;;;5060912;28;20551;-77
2022/11/23 03:09:56;;;;;;;11.65;2.95;;;9.60;99.90;;;;;;5077705;28;20123;-77
2022/11/23 03:12:22;;;;;;;15.45;2.72;;;9.60;99.90;;;;;;5094463;28;20384;-77
2022/11/23 03:14:47;;;;;;;10.77;2.90;;;9.60;99.90;;;;;;5094144;28;20481;-78
2022/11/23 03:17:13;;;;;;;9.85;2.50;;;9.70;99.90;;;;;;5094246;28;20036;-78
2022/11/23 03:19:39;;;;;;;8.15;2.17;;;9.60;99.90;;;;;;5094392;28;20090;-77
2022/11/23 03:22:04;;;;;;;10.10;2.35;;;9.70;99.90;;;;;;5059589;28;20032;-77
2022/11/23 03:24:30;;;;;;;10.77;2.28;;;9.70;99.90;;;;;;5075977;28;20063;-77
2022/11/23 03:26:56;;;;;;;13.65;2.38;;;9.70;99.90;;;;;;5094377;28;20051;-77
2022/11/23 03:29:25;;;;;;;10.07;1.75;;;9.70;99.90;;;;;;5094144;28;20110;-77
2022/11/23 03:31:51;;;;;;;10.23;2.25;;;9.80;99.90;;;;;;5060434;28;20028;-77
2022/11/23 03:34:17;;;;;;;11.35;1.80;;;9.80;99.90;;;;;;5093988;28;20028;-77
2022/11/23 03:36:42;;;;;;;11.23;1.80;;;9.80;99.90;;;;;;5094256;28;20042;-76
2022/11/23 03:39:08;;;;;;;12.55;1.92;;;9.80;99.90;;;;;;5093722;28;20112;-78
2022/11/23 03:41:34;;;;;;;12.38;1.60;;;9.80;99.90;;;;;;5093676;28;20158;-77
2022/11/23 03:44:00;;;;;;;9.00;1.63;;;9.90;99.90;;;;;;5094349;28;20499;-77
2022/11/23 03:46:26;;;;;;;10.45;1.65;;;9.90;99.90;;;;;;5094033;28;20040;-77
2022/11/23 03:48:51;;;;;;;14.05;2.05;;;9.90;99.90;;;;;;5094075;28;20460;-78
2022/11/23 03:51:17;;;;;;;10.82;1.65;;;9.90;99.90;;;;;;5094080;28;20149;-77
2022/11/23 03:53:43;;;;;;;11.07;1.70;;;9.90;99.90;;;;;;5093417;28;20055;-77
2022/11/23 03:56:08;;;;;;;11.95;2.33;;;9.90;99.90;;;;;;5093690;28;20039;-76
2022/11/23 03:58:34;;;;;;;11.80;2.30;;;9.90;99.90;;;;;;5093316;28;20058;-77
2022/11/23 04:01:00;;;;;;;12.85;2.65;;;9.90;99.90;;;;;;5093831;28;20521;-77
2022/11/23 04:03:26;;;;;;;12.88;2.20;;;9.90;99.90;;;;;;5093529;28;20032;-77
2022/11/23 04:05:51;;;;;;;10.23;2.65;;;9.90;99.90;;;;;;5075184;28;20077;-77
2022/11/23 04:08:17;;;;;;;12.27;1.98;;;9.90;99.90;;;;;;5093689;28;20085;-77
2022/11/23 04:10:43;;;;;;;11.43;2.22;;;9.90;99.90;;;;;;5093593;28;20089;-76
2022/11/23 04:13:08;;;;;;;10.52;1.45;;;9.90;99.90;;;;;;5093339;28;20036;-77
2022/11/23 04:15:34;;;;;;;14.10;2.85;;;9.90;99.90;;;;;;5075233;28;20035;-77
2022/11/23 04:18:00;;;;;;;13.65;2.05;;;9.90;99.90;;;;;;5059117;28;20032;-77
2022/11/23 04:20:26;;;;;;;16.15;2.28;;;9.90;99.90;;;;;;5093584;28;20044;-77
2022/11/23 04:22:52;;;;;;;8.80;1.98;;;9.90;99.90;;;;;;5093429;28;20035;-77
2022/11/23 04:25:18;;;;;;;12.02;2.13;;;9.90;99.90;;;;;;5093546;28;20127;-76
2022/11/23 04:27:44;;;;;;;19.73;2.28;;;9.90;99.90;;;;;;5075546;28;20032;-76
2022/11/23 04:30:11;;;;;;;9.65;1.80;;;9.80;99.90;;;;;;5093128;28;20131;-76
2022/11/23 04:32:36;;;;;;;10.48;2.00;;;9.80;99.90;;;;;;5075085;28;20476;-76
2022/11/23 04:35:02;;;;;;;12.27;2.15;;;9.80;99.90;;;;;;5093543;28;20112;-77
2022/11/23 04:37:28;;;;;;;11.65;1.92;;;9.80;99.90;;;;;;5059301;28;20070;-77
2022/11/23 04:39:53;;;;;;;12.43;2.40;;;9.80;99.90;;;;;;5094116;28;20046;-77
2022/11/23 04:42:19;;;;;;;12.35;1.90;;;9.80;99.90;;;;;;5094001;28;20494;-77
2022/11/23 04:44:45;;;;;;;11.35;2.00;;;9.90;99.90;;;;;;5093267;28;20028;-77
2022/11/23 04:47:11;;;;;;;12.20;1.90;;;9.90;99.90;;;;;;5096601;28;20032;-77
2022/11/23 04:49:36;;;;;;;12.52;1.92;;;9.90;99.90;;;;;;5079086;28;20038;-78
2022/11/23 04:52:03;;;;;;;17.67;2.65;;;9.90;99.90;;;;;;5097167;28;20062;-78
2022/11/23 04:54:28;;;;;;;12.23;1.83;;;9.90;99.90;;;;;;5079616;28;20372;-78
2022/11/23 04:56:55;;;;;;;12.35;2.30;;;9.90;99.90;;;;;;5079509;28;20050;-78
2022/11/23 04:59:21;;;;;;;17.27;2.30;;;9.80;99.90;;;;;;5079299;28;20039;-77
2022/11/23 05:01:48;;;;;;;9.15;1.90;;;9.80;99.90;;;;;;5097448;28;20028;-78
2022/11/23 05:04:14;;;;;;;13.82;1.73;;;9.80;99.90;;;;;;5079254;28;20028;-77
2022/11/23 05:06:39;;;;;;;12.90;2.20;;;9.80;99.90;;;;;;5097095;28;20032;-77
2022/11/23 05:09:05;;;;;;;15.85;1.83;;;9.80;99.90;;;;;;5079385;28;20032;-77
2022/11/23 05:11:31;;;;;;;8.95;1.60;;;9.80;99.90;;;;;;5097341;28;20030;-77
2022/11/23 05:13:56;;;;;;;12.60;2.50;;;9.80;99.90;;;;;;5097023;28;20055;-77
2022/11/23 05:16:22;;;;;;;16.30;2.25;;;9.80;99.90;;;;;;5096888;28;20024;-77
2022/11/23 05:18:47;;;;;;;7.85;1.60;;;9.80;99.90;;;;;;5097245;28;20388;-77
2022/11/23 05:21:13;;;;;;;12.18;1.98;;;9.70;99.90;;;;;;5096786;28;20456;-78
2022/11/23 05:23:39;;;;;;;10.75;1.80;;;9.80;99.90;;;;;;5096726;28;20043;-77
2022/11/23 05:26:04;;;;;;;14.65;2.20;;;9.70;99.90;;;;;;5078661;28;20035;-77
2022/11/23 05:28:30;;;;;;;15.57;1.45;;;9.70;99.90;;;;;;5078509;28;20151;-77
2022/11/23 05:30:56;;;;;;;12.02;1.60;;;9.70;99.90;;;;;;5096401;28;20035;-77
2022/11/23 05:33:21;;;;;;;10.27;1.75;;;9.70;99.90;;;;;;5096504;28;20473;-74
2022/11/23 05:35:47;;;;;;;12.55;1.67;;;9.70;99.90;;;;;;5096507;28;20024;-73
2022/11/23 05:38:13;;;;;;;18.10;1.80;;;9.80;99.90;;;;;;5078316;28;20512;-74
2022/11/23 05:40:38;;;;;;;10.07;1.48;;;9.70;99.90;;;;;;5096401;28;20036;-75
2022/11/23 05:43:04;;;;;;;13.25;2.08;;;9.80;99.90;;;;;;5078240;28;20111;-75
2022/11/23 05:45:31;;;;;;;14.45;1.88;;;9.70;99.90;;;;;;5061478;28;20402;-74
2022/11/23 05:47:58;;;;;;;14.20;1.77;;;9.80;99.90;;;;;;5078670;28;20406;-74
2022/11/23 05:50:26;;;;;;;14.88;1.88;;;9.80;99.90;;;;;;5078569;28;20036;-74
2022/11/23 05:52:54;;;;;;;13.85;1.50;;;9.80;99.90;;;;;;5061438;28;20082;-74
2022/11/23 05:55:20;;;;;;;11.25;1.60;;;9.80;99.90;;;;;;5062032;28;20058;-74
2022/11/23 05:57:45;;;;;;;14.88;1.73;;;9.90;99.90;;;;;;5061091;28;20032;-74
2022/11/23 06:00:12;;;;;;;12.48;1.55;;;9.90;99.90;;;;;;5074382;28;20047;-73
2022/11/23 06:02:38;;;;;;;13.23;1.98;;;9.80;99.90;;;;;;5060720;28;20097;-74
2022/11/23 06:05:04;;;;;;;18.42;2.35;;;9.90;99.90;;;;;;5095921;28;20024;-73
2022/11/23 06:07:33;;;;;;;10.95;1.77;;;9.90;99.90;;;;;;5077561;28;20389;-75
2022/11/23 06:09:59;;;;;;;12.13;2.15;;;9.90;99.90;;;;;;5077640;28;20024;-78
2022/11/23 06:12:27;;;;;;;12.75;2.22;;;9.90;99.90;;;;;;5096141;28;20032;-79
2022/11/23 06:14:52;;;;;;;14.25;2.17;;;9.90;99.90;;;;;;5077918;28;20121;-78
2022/11/23 06:17:18;;;;;;;11.57;2.25;;;9.90;99.90;;;;;;5078055;28;20028;-78
2022/11/23 06:19:44;;;;;;;17.88;4.03;;;9.90;99.90;;;;;;5078288;28;20503;-78
2022/11/23 06:22:10;;;;;;;10.60;1.67;;;9.80;99.90;;;;;;5078843;28;20028;-76
2022/11/23 06:24:36;;;;;;;14.52;2.08;;;9.80;99.90;;;;;;5077688;28;20031;-76
2022/11/23 06:27:01;;;;;;;14.30;2.15;;;9.90;99.90;;;;;;5078027;28;20032;-73
2022/11/23 06:29:27;;;;;;;16.52;3.03;;;9.80;99.90;;;;;;5077309;28;20043;-76
2022/11/23 06:31:53;;;;;;;12.68;1.75;;;9.80;99.90;;;;;;5096832;28;20031;-76
2022/11/23 06:34:19;;;;;;;15.00;1.83;;;9.90;99.90;;;;;;5060635;28;20073;-75
2022/11/23 06:36:45;;;;;;;12.20;1.98;;;9.90;99.90;;;;;;5077354;28;20032;-76
2022/11/23 06:39:12;;;;;;;16.38;2.03;;;9.90;99.90;;;;;;5077259;28;20476;-76
2022/11/23 06:41:38;;;;;;;13.00;2.28;;;9.90;99.90;;;;;;5077072;28;20561;-75
2022/11/23 06:44:04;;;;;;;18.17;2.00;;;9.90;99.90;;;;;;5076371;28;20045;-75
2022/11/23 06:46:30;;;;;;;16.85;2.15;;;9.90;99.90;;;;;;5076666;28;20118;-77
2022/11/23 06:48:56;;;;;;;11.82;1.65;;;10.00;99.90;;;;;;5060348;28;20472;-78
2022/11/23 06:51:22;;;;;;;14.43;2.50;;;10.00;99.90;;;;;;5077292;28;20028;-79
2022/11/23 06:53:47;;;;;;;13.63;2.78;;;10.00;99.90;;;;;;5094662;28;20444;-79
2022/11/23 06:56:13;;;;;;;16.63;2.95;;;10.00;99.90;;;;;;5094978;28;20032;-81
2022/11/23 06:58:39;;;;;;;11.80;2.03;;;10.10;99.90;;;;;;5076539;28;20055;-82
2022/11/23 07:01:07;;;;;;;21.48;2.58;;;10.10;99.90;;;;;;5076342;28;20024;-79
2022/11/23 07:03:33;;;;;;;17.52;3.75;;;10.00;99.90;;;;;;5076636;28;20039;-80
2022/11/23 07:05:58;;;;;;;12.82;2.50;;;10.00;99.90;;;;;;5095146;28;20036;-83
2022/11/23 07:08:24;;;;;;;15.55;2.42;;;10.10;99.90;;;;;;5076857;28;20039;-79
2022/11/23 07:11:02;;;;;;;16.05;1.90;;;10.10;99.90;;;;;;5077207;28;20463;-82
2022/11/23 07:13:28;;;;;;;19.27;2.47;;;10.10;99.90;;;;;;5076829;28;20028;-82
2022/11/23 07:15:55;;;;;;;14.68;2.75;;;10.10;99.90;;;;;;5094492;28;20047;-82
2022/11/23 07:18:21;;;;;;;17.05;2.65;;;10.10;99.90;;;;;;5076113;28;20024;-82
2022/11/23 07:20:47;;;;;;;17.52;2.75;;;10.00;99.90;;;;;;5076967;28;20055;-82
2022/11/23 07:23:12;;;;;;;13.40;1.98;;;10.00;99.90;;;;;;5094275;28;20024;-81
2022/11/23 07:25:38;;;;;;;16.38;2.35;;;10.00;99.90;;;;;;5094850;28;20119;-82
2022/11/23 07:28:05;;;;;;;16.98;2.22;;;10.00;99.90;;;;;;5075923;28;20044;-81
2022/11/23 07:30:32;;;;;;;12.60;1.75;;;10.00;99.90;;;;;;5076047;28;20033;-83
2022/11/23 07:33:04;;;;;;;18.23;2.42;;;10.10;99.90;;;;;;5076562;28;20376;-81
2022/11/23 07:35:31;;;;;;;14.10;1.80;;;10.00;99.90;;;;;;5094151;28;20055;-82
2022/11/23 07:37:57;;;;;;;16.38;1.80;;;10.10;99.90;;;;;;5075784;28;20032;-81
2022/11/23 07:40:23;;;;;;;12.18;1.50;;;10.10;99.90;;;;;;5059247;28;20434;-81
2022/11/23 07:42:49;;;;;;;17.83;2.33;;;10.00;99.90;;;;;;5075584;28;20101;-81
2022/11/23 07:45:14;;;;;;;18.13;2.90;;;10.10;99.90;;;;;;5093871;28;20027;-84
2022/11/23 07:47:40;;;;;;;16.50;3.17;;;10.10;99.90;;;;;;5075751;28;20036;-80
2022/11/23 07:50:08;;;;;;;12.27;1.85;;;10.00;99.90;;;;;;5094051;28;20031;-84
2022/11/23 07:52:35;;;;;;;15.88;2.22;;;10.00;99.90;;;;;;5093988;28;20020;-80
2022/11/23 07:55:01;;;;;;;15.05;1.80;;;10.10;99.90;;;;;;5094407;28;20406;-80
2022/11/23 07:57:27;;;;;;;16.70;2.42;;;10.10;99.90;;;;;;5094010;28;20036;-80
2022/11/23 07:59:53;;;;;;;18.23;2.30;;;10.00;99.90;;;;;;5093770;28;20031;-79
2022/11/23 08:02:19;;;;;;;14.45;2.08;;;10.00;99.90;;;;;;5093486;28;20383;-79
2022/11/23 08:04:45;;;;;;;15.40;1.70;;;10.00;99.90;;;;;;5075340;28;20028;-79
2022/11/23 08:07:11;;;;;;;14.23;2.90;;;10.00;99.90;;;;;;5058855;28;20043;-76
2022/11/23 08:09:37;;;;;;;14.07;2.20;;;10.00;99.90;;;;;;5075355;28;20036;-80
2022/11/23 08:12:03;;;;;;;12.73;1.83;;;10.00;99.90;;;;;;5075598;28;20077;-75
2022/11/23 08:14:29;;;;;;;12.13;1.60;;;10.00;99.90;;;;;;5075060;28;20060;-77
2022/11/23 08:16:55;;;;;;;14.55;2.47;;;10.10;99.90;;;;;;5074747;28;20075;-76
2022/11/23 08:19:21;;;;;;;19.58;2.13;;;10.10;99.90;;;;;;5058123;28;20101;-75
2022/11/23 08:21:47;;;;;;;13.82;1.65;;;10.10;99.90;;;;;;5074124;28;20020;-76
2022/11/23 08:24:13;;;;;;;19.75;2.17;;;10.10;99.90;;;;;;5074855;28;20020;-76
2022/11/23 08:27:05;;;;;;;16.15;1.73;;;10.10;99.90;;;;;;5075027;28;20039;-79
2022/11/23 08:29:31;;;;;;;14.00;1.83;;;10.20;99.90;;;;;;5074242;28;20119;-79
2022/11/23 08:31:57;;;;;;;17.90;2.55;;;10.20;99.90;;;;;;5074710;28;20117;-82
2022/11/23 08:34:24;;;;;;;10.82;1.52;;;10.10;99.90;;;;;;5092767;28;20464;-76
2022/11/23 08:36:50;;;;;;;13.02;1.88;;;10.10;99.90;;;;;;5074886;28;20082;-74
2022/11/23 08:39:19;;;;;;;13.70;1.83;;;10.20;99.90;;;;;;5058770;28;20032;-75
2022/11/23 08:41:45;;;;;;;10.13;1.63;;;10.10;99.90;;;;;;5093359;28;20032;-75
2022/11/23 08:44:11;;;;;;;15.35;1.80;;;10.20;99.90;;;;;;5058695;28;20482;-74
2022/11/23 08:46:37;;;;;;;18.25;2.95;;;10.30;99.90;;;;;;5057887;28;20098;-74
2022/11/23 08:49:06;;;;;;;16.27;2.47;;;10.20;99.90;;;;;;5092389;28;20369;-75
2022/11/23 08:51:32;;;;;;;16.52;2.30;;;10.30;99.90;;;;;;5074047;28;20032;-76
2022/11/23 08:53:58;;;;;;;14.15;2.30;;;10.30;99.90;;;;;;5074342;28;20106;-79
2022/11/23 08:56:24;;;;;;;11.30;1.88;;;10.30;99.90;;;;;;5092597;28;20122;-78
2022/11/23 08:58:49;;;;;;;15.38;2.25;;;10.40;99.90;;;;;;5092598;28;20036;-80
2022/11/23 09:01:17;;;;;;;12.25;1.85;;;10.40;99.90;;;;;;5041324;28;20032;-80
2022/11/23 09:03:43;;;;;;;13.38;2.20;;;10.50;99.90;;;;;;5074774;28;20058;-80
2022/11/23 09:06:10;;;;;;;13.27;1.60;;;10.60;99.90;;;;;;5074559;28;20055;-81
2022/11/23 09:08:36;;;;;;;13.88;1.73;;;10.60;99.90;;;;;;5093424;28;20036;-80
2022/11/23 09:11:06;;;;;;;14.73;1.80;;;10.70;99.90;;;;;;5093395;28;20499;-79
2022/11/23 09:13:39;;;;;;;14.20;1.65;;;10.70;99.90;;;;;;5093093;28;20036;-80
2022/11/23 09:16:05;;;;;;;12.63;1.52;;;10.80;99.90;;;;;;5074673;28;20028;-79
2022/11/23 09:18:32;;;;;;;17.63;2.03;;;10.80;99.90;;;;;;5071001;28;20068;-78
2022/11/23 09:21:00;;;;;;;11.95;1.85;;;10.90;99.60;;;;;;5071742;28;20341;-78
2022/11/23 09:23:26;;;;;;;13.90;1.88;;;10.90;99.90;;;;;;5072385;28;20024;-77
2022/11/23 09:25:53;;;;;;;13.98;1.80;;;10.90;99.60;;;;;;5072563;28;20032;-77
2022/11/23 09:28:19;;;;;;;13.52;2.25;;;11.00;99.20;;;;;;5038931;28;20094;-78
2022/11/23 09:30:46;;;;;;;16.13;2.10;;;10.90;99.40;;;;;;5073911;28;20029;-78
2022/11/23 09:33:12;;;;;;;17.58;2.83;;;10.90;99.00;;;;;;5092180;28;20028;-81
2022/11/23 09:35:38;;;;;;;18.08;2.10;;;10.90;99.20;;;;;;5058479;28;20100;-78
2022/11/23 09:38:05;;;;;;;14.77;2.17;;;10.90;99.30;;;;;;5058772;28;20056;-79
2022/11/23 09:40:52;;;;;;;10.07;1.85;;;10.90;99.10;;;;;;5047344;28;20044;-78
2022/11/23 09:43:59;;;;;;;13.80;1.77;;;10.90;98.90;;;;;;5075239;28;20484;-77
2022/11/23 09:46:54;;;;;;;15.10;1.85;;;10.90;98.50;;;;;;5091747;28;20036;-78
2022/11/23 09:49:32;;;;;;;16.33;1.73;;;10.90;97.90;;;;;;5075546;28;20062;-75
2022/11/23 09:51:58;;;;;;;14.43;2.05;;;10.90;98.30;;;;;;5075768;28;20025;-74
2022/11/23 09:54:32;;;;;;;19.02;2.20;;;10.90;98.00;;;;;;5057303;28;20040;-74
2022/11/23 09:56:58;;;;;;;12.65;1.67;;;10.90;98.20;;;;;;5091044;28;20040;-74
2022/11/23 09:59:29;;;;;;;14.50;2.45;;;10.90;98.10;;;;;;5074752;28;20024;-76
2022/11/23 10:01:58;;;;;;;15.25;1.63;;;10.90;98.10;;;;;;5075779;28;20351;-81
2022/11/23 10:04:33;;;;;;;13.38;1.58;;;10.90;98.10;;;;;;5075795;28;20111;-77
2022/11/23 10:07:30;;;;;;;15.68;2.35;;;11.00;97.90;;;;;;5074592;28;20432;-78
2022/11/23 10:10:02;;;;;;;9.80;1.30;;;11.00;98.20;;;;;;5072293;28;20056;-81
2022/11/23 10:13:20;;;;;;;12.52;1.50;;;11.00;97.80;;;;;;5091778;28;20067;-75
2022/11/23 10:16:07;;;;;;;13.07;1.70;;;11.10;97.60;;;;;;5016660;28;20095;-75
2022/11/23 10:18:48;;;;;;;13.05;1.92;;;11.10;97.50;;;;;;5016406;28;20045;-75
2022/11/23 10:21:43;;;;;;;15.77;1.70;;;11.10;97.40;;;;;;5056514;28;20055;-75
2022/11/23 10:24:19;;;;;;;11.35;1.88;;;11.10;97.20;;;;;;5091298;28;20027;-75
2022/11/23 10:26:48;;;;;;;15.05;1.83;;;11.20;97.30;;;;;;5073875;28;20050;-75
2022/11/23 10:29:36;;;;;;;15.00;2.03;;;11.20;97.10;;;;;;5074967;28;20469;-75
2022/11/23 10:32:05;;;;;;;16.55;1.55;;;11.20;96.80;;;;;;5040974;28;20036;-75
2022/11/23 10:35:16;;;;;;;16.20;1.98;;;11.20;96.90;;;;;;5075260;28;20024;-75
2022/11/23 10:37:42;;;;;;;17.02;2.03;;;11.20;97.20;;;;;;5090845;28;20033;-75
2022/11/23 10:40:28;;;;;;;14.02;1.75;;;11.10;96.90;;;;;;5073375;28;20025;-74
2022/11/23 10:43:02;;;;;;;13.05;1.30;;;11.10;97.20;;;;;;5056846;28;20048;-75
2022/11/23 10:45:29;;;;;;;11.32;1.35;;;11.20;97.00;;;;;;5073159;28;20373;-76
2022/11/23 10:47:59;;;;;;;14.55;1.70;;;11.20;97.10;;;;;;5056685;28;20487;-75
2022/11/23 10:50:32;;;;;;;15.23;1.70;;;11.20;97.00;;;;;;5075051;28;20031;-75
2022/11/23 10:53:22;;;;;;;16.23;3.25;;;11.30;96.70;;;;;;5073459;28;20124;-76
2022/11/23 10:55:58;;;;;;;10.30;1.35;;;11.30;95.90;;;;;;5065860;28;20040;-80
2022/11/23 10:58:43;;;;;;;10.93;1.80;;;11.30;96.30;;;;;;5075064;28;20059;-77
2022/11/23 11:01:15;;;;;;;9.57;1.25;;;11.30;96.30;;;;;;5073250;28;20031;-75
2022/11/23 11:03:42;;;;;;;13.30;2.05;;;11.30;96.10;;;;;;5073698;28;20028;-75
2022/11/23 11:06:21;;;;;;;11.73;1.80;;;11.30;96.10;;;;;;5057196;28;20078;-79
2022/11/23 11:09:36;;;;;;;10.48;1.10;;;11.30;96.20;;;;;;5073563;28;20040;-79
2022/11/23 11:12:14;;;;;;;11.38;1.90;;;11.40;96.10;;;;;;5074255;28;20059;-81
2022/11/23 11:15:03;;;;;;;11.98;1.50;;;11.40;96.10;;;;;;5074396;28;20032;-74
2022/11/23 11:17:32;;;;;;;9.57;1.83;;;11.40;96.00;;;;;;5073441;28;20029;-74
2022/11/23 11:19:58;;;;;;;9.13;1.75;;;11.50;95.70;;;;;;5089671;28;20072;-78
2022/11/23 11:22:28;;;;;;;9.50;1.40;;;11.50;96.00;;;;;;5094921;28;20036;-78
2022/11/23 11:24:54;;;;;;;7.20;1.10;;;11.60;95.90;;;;;;5094348;28;20114;-79
2022/11/23 11:27:22;;;;;;;8.98;0.73;;;11.60;96.10;;;;;;5094066;28;20032;-78
2022/11/23 11:30:20;;;;;;;7.18;1.08;;;11.70;96.20;;;;;;5076561;28;20127;-77
2022/11/23 11:33:06;;;;;;;10.93;1.50;;;11.80;95.70;;;;;;5076260;28;20429;-77
2022/11/23 11:35:37;;;;;;;7.30;1.02;;;11.90;95.10;;;;;;5076498;28;20257;-78
2022/11/23 11:38:40;;;;;;;11.48;1.30;;;11.80;94.80;;;;;;5075863;28;20111;-77
2022/11/23 11:41:26;;;;;;;13.95;1.92;;;11.90;94.80;;;;;;5076330;28;20131;-79
2022/11/23 11:44:14;;;;;;;11.00;1.33;;;11.90;94.50;;;;;;5073174;28;20028;-79
2022/11/23 11:46:46;;;;;;;13.15;2.35;;;11.80;94.30;;;;;;5075579;28;20028;-80
2022/11/23 11:49:39;;;;;;;9.48;1.30;;;11.80;94.50;;;;;;5093763;28;20060;-79
2022/11/23 11:52:43;;;;;;;9.02;1.45;;;11.80;94.80;;;;;;5076401;28;20024;-80
2022/11/23 11:55:17;;;;;;;9.18;1.02;;;11.90;94.80;;;;;;5094456;28;20028;-79
2022/11/23 11:57:49;;;;;;;9.65;0.73;;;11.90;94.30;;;;;;5093609;28;20072;-80
2022/11/23 12:00:19;;;;;;;8.15;1.38;;;11.90;94.10;;;;;;5091026;28;20036;-80
2022/11/23 12:02:56;;;;;;;10.02;1.27;;;12.00;93.80;;;;;;5059738;28;20097;-79
2022/11/23 12:05:47;;;;;;;7.97;0.95;;;12.00;94.10;;;;;;5076769;28;20024;-82
2022/11/23 12:08:39;;;;;;;7.78;1.05;;;12.00;93.90;;;;;;5094079;28;20023;-80
2022/11/23 12:11:06;;;;;;;6.53;0.70;;;12.00;93.70;;;;;;5077095;28;20059;-80
2022/11/23 12:13:54;;;;;;;8.38;0.90;;;12.10;93.30;;;;;;5076195;28;20089;-81
2022/11/23 12:16:32;;;;;;;5.82;0.73;;;12.00;93.30;;;;;;5092435;28;20040;-79
2022/11/23 12:19:26;;;;;;;8.65;0.90;;;12.00;93.70;;;;;;5093422;28;20089;-82
2022/11/23 12:22:02;;;;;;;8.45;1.30;;;12.00;94.20;;;;;;5093583;28;20036;-81
2022/11/23 12:24:31;;;;;;;9.77;0.90;;;12.00;94.60;;;;;;5093784;28;20038;-81
2022/11/23 12:27:14;;;;;;;9.38;1.00;;;12.00;94.20;;;;;;5074834;28;20031;-81
2022/11/23 12:29:50;;;;;;;;;;;12.00;94.10;;;;;;5075418;28;20468;-79
2022/11/23 12:32:39;;;;;;;6.25;0.60;;;12.10;94.30;;;;;;5075456;28;20421;-81
2022/11/23 12:35:16;;;;;;;7.53;0.80;;;12.20;94.20;;;;;;5079421;28;20035;-81
2022/11/23 12:37:56;;;;;;;9.93;0.80;;;12.20;93.90;;;;;;5076294;28;20036;-81
2022/11/23 12:40:40;;;;;;;12.65;1.40;;;12.30;93.90;;;;;;5076296;28;20032;-82
2022/11/23 12:43:13;;;;;;;7.82;0.75;;;12.40;94.00;;;;;;5094160;28;20028;-82
2022/11/23 12:45:47;;;;;;;5.40;0.80;;;12.40;92.80;;;;;;5075776;28;20032;-83
2022/11/23 12:48:28;;;;;;;5.15;1.38;;;12.50;92.70;;;;;;5093625;28;20068;-86
2022/11/23 12:51:12;;;;;;;8.38;0.70;;;12.60;92.80;;;;;;5094799;28;20133;-82
2022/11/23 12:54:11;;;;;;;6.50;0.82;;;12.60;92.90;;;;;;5075453;28;20036;-83
2022/11/23 12:57:01;;;;;;;5.50;0.70;;;12.60;92.80;;;;;;5094215;28;20032;-82
2022/11/23 12:59:37;;;;;;;6.57;0.70;;;12.60;92.50;;;;;;5075247;28;20069;-83